Time;durP1;ratioP1;P1;durP2;ratioP2;P2;SDS_P1;SDS_P2;PMS_P1;PMS_P2;Temp;Humidity;BMP_temperature;BMP_pressure;BME280_temperature;BME280_humidity;BME280_pressure;Samples;Min_cycle;Max_cycle;Signal;HPM_P1;HPM_P2
2024/01/19 00:01:54;;;;;;;24.30;13.70;;;;;;;2.74;80.11;99247.91;107266;1260;113365;-68
2024/01/19 00:04:22;;;;;;;28.30;15.00;;;;;;;2.69;80.24;99254.31;107235;1257;107450;-69
2024/01/19 00:06:50;;;;;;;24.30;14.40;;;;;;;2.61;80.19;99249.58;107257;1259;107894;-68
2024/01/19 00:09:18;;;;;;;26.80;14.20;;;;;;;2.54;79.97;99254.98;107235;1258;99192;-68
2024/01/19 00:11:47;;;;;;;27.80;15.50;;;;;;;2.49;80.18;99254.74;107283;1257;99437;-69
2024/01/19 00:14:16;;;;;;;28.80;14.80;;;;;;;2.47;80.21;99255.08;107285;1260;112574;-67
2024/01/19 00:16:44;;;;;;;24.90;14.00;;;;;;;2.44;80.47;99251.98;107228;1257;108553;-69
2024/01/19 00:19:13;;;;;;;24.20;13.50;;;;;;;2.44;80.74;99254.65;107224;1257;108579;-68
2024/01/19 00:21:46;;;;;;;25.30;15.60;;;;;;;2.47;80.72;99261.86;107223;1259;99221;-68
2024/01/19 00:24:14;;;;;;;27.20;14.50;;;;;;;2.49;81.08;99262.95;107269;1256;99176;-68
2024/01/19 00:26:44;;;;;;;26.10;15.50;;;;;;;2.50;81.06;99259.65;107285;1257;111801;-68
2024/01/19 00:29:13;;;;;;;23.30;13.70;;;;;;;2.50;81.10;99268.48;107279;1257;107510;-69
2024/01/19 00:31:45;;;;;;;28.40;16.00;;;;;;;2.47;81.03;99260.10;107238;1259;107628;-68
2024/01/19 00:34:15;;;;;;;28.90;14.90;;;;;;;2.44;81.24;99255.89;107217;1257;99214;-68
2024/01/19 00:36:44;;;;;;;27.90;15.00;;;;;;;2.45;81.12;99259.00;107231;1257;99765;-69
2024/01/19 00:39:13;;;;;;;24.10;14.30;;;;;;;2.46;81.17;99256.66;107213;1257;112534;-69
2024/01/19 00:41:42;;;;;;;23.40;13.80;;;;;;;2.48;81.28;99261.21;107297;1257;108786;-69
2024/01/19 00:44:11;;;;;;;23.70;14.20;;;;;;;2.50;81.32;99265.88;107205;1257;107821;-69
2024/01/19 00:46:39;;;;;;;25.70;14.40;;;;;;;2.54;81.53;99267.13;107191;1258;99079;-69
2024/01/19 00:49:07;;;;;;;24.50;14.60;;;;;;;2.56;81.23;99268.06;107211;1258;99105;-69
2024/01/19 00:51:35;;;;;;;23.80;14.00;;;;;;;2.55;81.23;99264.48;107154;1257;113076;-69
2024/01/19 00:54:04;;;;;;;23.40;14.00;;;;;;;2.56;81.34;99268.26;107231;1257;108878;-69
2024/01/19 00:56:32;;;;;;;25.80;14.10;;;;;;;2.55;81.31;99272.21;107200;1257;107707;-68
2024/01/19 00:59:01;;;;;;;28.10;14.90;;;;;;;2.50;81.21;99276.14;107078;1257;99189;-69
2024/01/19 01:01:29;;;;;;;25.50;14.60;;;;;;;2.51;80.98;99273.79;107228;1260;99192;-68
2024/01/19 01:03:58;;;;;;;24.60;14.00;;;;;;;2.50;81.34;99275.04;107308;1257;113250;-68
2024/01/19 01:06:27;;;;;;;23.30;13.50;;;;;;;2.54;81.47;99275.51;107237;1259;107466;-68
2024/01/19 01:08:59;;;;;;;27.60;15.30;;;;;;;2.55;81.39;99276.23;107279;1256;106891;-69
2024/01/19 01:11:28;;;;;;;27.50;14.30;;;;;;;2.56;81.30;99273.34;107236;1260;99360;-69
2024/01/19 01:13:57;;;;;;;23.00;13.60;;;;;;;2.55;81.25;99275.77;107283;1257;99080;-69
2024/01/19 01:16:26;;;;;;;28.60;14.80;;;;;;;2.55;81.37;99274.30;107239;1257;112334;-69
2024/01/19 01:18:55;;;;;;;24.70;13.60;;;;;;;2.52;81.24;99274.36;107307;1257;108570;-68
2024/01/19 01:21:25;;;;;;;27.80;16.40;;;;;;;2.53;81.46;99269.01;107213;1258;108251;-69
2024/01/19 01:23:53;;;;;;;21.80;13.80;;;;;;;2.56;81.78;99273.33;107192;1257;99273;-69
2024/01/19 01:26:21;;;;;;;23.30;13.50;;;;;;;2.60;81.62;99280.87;107240;1256;99185;-69
2024/01/19 01:28:50;;;;;;;32.70;14.60;;;;;;;2.62;81.58;99283.67;107284;1257;113108;-68
2024/01/19 01:31:18;;;;;;;23.20;14.50;;;;;;;2.65;81.76;99288.02;107243;1259;108682;-68
2024/01/19 01:33:46;;;;;;;25.80;14.30;;;;;;;2.71;81.99;99288.27;107224;1259;107755;-67
2024/01/19 01:36:15;;;;;;;27.90;14.70;;;;;;;2.75;82.00;99283.73;107184;1257;99190;-68
2024/01/19 01:38:43;;;;;;;26.80;14.10;;;;;;;2.76;81.86;99281.98;107284;1256;99211;-69
2024/01/19 01:41:12;;;;;;;28.10;14.20;;;;;;;2.74;81.68;99279.94;107301;1257;111444;-67
2024/01/19 01:43:41;;;;;;;26.60;14.20;;;;;;;2.72;81.51;99283.42;107255;1257;108322;-70
2024/01/19 01:46:09;;;;;;;25.00;14.30;;;;;;;2.69;81.47;99285.12;107171;1256;108639;-69
2024/01/19 01:48:38;;;;;;;26.40;14.70;;;;;;;2.70;81.71;99284.63;107154;1256;99188;-70
2024/01/19 01:51:08;;;;;;;26.20;14.00;;;;;;;2.71;81.87;99285.07;107228;1257;99186;-69
2024/01/19 01:53:37;;;;;;;25.10;14.70;;;;;;;2.72;81.95;99285.34;107270;1257;113101;-69
2024/01/19 01:56:06;;;;;;;27.90;14.40;;;;;;;2.76;82.13;99288.95;107295;1256;108239;-67
2024/01/19 01:58:34;;;;;;;22.60;13.20;;;;;;;2.81;82.29;99290.85;107240;1256;108466;-68
2024/01/19 02:01:02;;;;;;;28.60;13.90;;;;;;;2.84;82.32;99292.06;107205;1260;99202;-69
2024/01/19 02:03:32;;;;;;;26.90;14.90;;;;;;;2.87;82.29;99289.32;107287;1257;99285;-69
2024/01/19 02:06:00;;;;;;;25.20;14.10;;;;;;;2.89;82.22;99293.36;107300;1257;111355;-68
2024/01/19 02:08:29;;;;;;;26.90;14.30;;;;;;;2.93;82.05;99302.69;107285;1257;108380;-69
2024/01/19 02:10:58;;;;;;;22.10;13.10;;;;;;;2.97;82.27;99299.15;107224;1257;107913;-68
2024/01/19 02:13:26;;;;;;;26.10;14.60;;;;;;;2.97;81.63;99294.73;107239;1257;99173;-68
2024/01/19 02:15:59;;;;;;;23.10;12.90;;;;;;;2.93;81.42;99292.34;107230;1257;99684;-68
2024/01/19 02:18:28;;;;;;;20.00;13.10;;;;;;;2.90;81.50;99291.25;107229;1257;113253;-69
2024/01/19 02:20:56;;;;;;;20.30;12.80;;;;;;;2.85;81.36;99287.00;107137;1257;108318;-70
2024/01/19 02:23:30;;;;;;;24.80;13.50;;;;;;;2.76;81.05;99287.91;107244;1256;108363;-69
2024/01/19 02:25:58;;;;;;;21.60;12.40;;;;;;;2.72;81.10;99291.78;107272;1257;99196;-69
2024/01/19 02:28:26;;;;;;;23.10;13.40;;;;;;;2.70;81.35;99293.49;107284;1257;99274;-69
2024/01/19 02:30:55;;;;;;;22.60;11.70;;;;;;;2.68;81.18;99300.17;107260;1257;112819;-69
2024/01/19 02:33:23;;;;;;;23.10;12.80;;;;;;;2.65;80.99;99309.08;107216;1257;107544;-69
2024/01/19 02:35:52;;;;;;;23.90;11.80;;;;;;;2.63;81.35;99311.72;107237;1260;108480;-69
2024/01/19 02:38:20;;;;;;;22.10;12.90;;;;;;;2.63;81.51;99316.89;107269;1254;99189;-69
2024/01/19 02:40:49;;;;;;;22.30;14.00;;;;;;;2.61;81.19;99314.74;107363;1254;99207;-69
2024/01/19 02:43:18;;;;;;;22.90;13.20;;;;;;;2.55;80.75;99318.98;107244;1257;111965;-68
2024/01/19 02:45:46;;;;;;;22.60;13.50;;;;;;;2.50;80.85;99323.94;107275;1258;108639;-69
2024/01/19 02:48:14;;;;;;;23.20;12.60;;;;;;;2.45;80.80;99325.70;107202;1258;109677;-69
2024/01/19 02:50:43;;;;;;;27.70;12.90;;;;;;;2.42;80.75;99331.94;107158;1257;99198;-70
2024/01/19 02:53:11;;;;;;;21.40;13.00;;;;;;;2.35;80.29;99330.19;107151;1257;99208;-69
2024/01/19 02:55:40;;;;;;;23.50;12.90;;;;;;;2.27;80.21;99332.42;107074;1256;113149;-70
2024/01/19 02:58:08;;;;;;;23.20;12.80;;;;;;;2.19;80.28;99338.54;107160;1257;108545;-69
2024/01/19 03:00:37;;;;;;;46.00;18.00;;;;;;;2.08;80.16;99337.94;107197;1256;107750;-69
2024/01/19 03:03:05;;;;;;;38.10;16.80;;;;;;;2.01;80.48;99343.23;107158;1256;99224;-69
2024/01/19 03:05:34;;;;;;;44.70;17.00;;;;;;;2.01;81.03;99347.98;107201;1258;99201;-69
2024/01/19 03:08:03;;;;;;;36.20;15.40;;;;;;;2.05;81.18;99348.41;107232;1257;113266;-69
2024/01/19 03:10:31;;;;;;;37.50;15.20;;;;;;;2.09;81.32;99350.58;107231;1257;108175;-68
2024/01/19 03:13:00;;;;;;;26.80;14.60;;;;;;;2.15;81.52;99355.09;107179;1256;107059;-68
2024/01/19 03:15:28;;;;;;;25.20;13.50;;;;;;;2.19;81.50;99356.52;107241;1256;99306;-69
2024/01/19 03:17:56;;;;;;;22.20;12.70;;;;;;;2.23;81.53;99365.64;107242;1259;99106;-68
2024/01/19 03:20:25;;;;;;;25.90;13.00;;;;;;;2.26;81.58;99376.05;107267;1257;113138;-68
2024/01/19 03:22:53;;;;;;;23.80;13.30;;;;;;;2.28;81.46;99381.33;107271;1257;107117;-69
2024/01/19 03:25:21;;;;;;;23.00;12.80;;;;;;;2.32;81.24;99387.77;107287;1257;108474;-69
2024/01/19 03:27:50;;;;;;;21.40;12.50;;;;;;;2.35;81.32;99394.62;107276;1256;99182;-69
2024/01/19 03:30:18;;;;;;;23.10;13.00;;;;;;;2.37;81.32;99397.13;107258;1256;99074;-70
2024/01/19 03:32:46;;;;;;;21.90;12.20;;;;;;;2.38;81.22;99398.67;107238;1257;113356;-69
2024/01/19 03:35:15;;;;;;;24.50;14.90;;;;;;;2.38;81.25;99397.38;107252;1257;108536;-68
2024/01/19 03:37:44;;;;;;;24.90;13.90;;;;;;;2.40;80.94;99402.73;107235;1254;107906;-69
2024/01/19 03:40:12;;;;;;;20.90;12.60;;;;;;;2.43;81.27;99404.58;107359;1254;99189;-68
2024/01/19 03:42:40;;;;;;;22.90;13.50;;;;;;;2.48;81.24;99407.21;107286;1257;99746;-68
2024/01/19 03:45:09;;;;;;;21.10;12.40;;;;;;;2.51;81.25;99414.80;107286;1256;113098;-68
2024/01/19 03:47:37;;;;;;;23.20;12.30;;;;;;;2.52;81.23;99417.71;107267;1257;108350;-68
2024/01/19 03:50:08;;;;;;;25.30;13.20;;;;;;;2.54;81.08;99426.29;107135;1256;108197;-68
2024/01/19 03:52:37;;;;;;;26.00;13.50;;;;;;;2.54;81.08;99434.04;107139;1256;99108;-68
2024/01/19 03:55:06;;;;;;;20.80;13.20;;;;;;;2.52;80.82;99437.56;107225;1256;99147;-68
2024/01/19 03:57:34;;;;;;;26.20;13.20;;;;;;;2.47;80.18;99445.70;107278;1257;111268;-68
2024/01/19 04:00:05;;;;;;;17.70;12.40;;;;;;;2.41;80.01;99454.66;107292;1256;107053;-68
2024/01/19 04:02:38;;;;;;;22.70;13.40;;;;;;;2.36;80.17;99460.33;107243;1256;108305;-68
2024/01/19 04:05:07;;;;;;;25.30;15.00;;;;;;;2.33;80.16;99461.09;107155;1256;99420;-69
2024/01/19 04:07:36;;;;;;;22.40;13.60;;;;;;;2.29;79.84;99461.77;107192;1256;99740;-68
2024/01/19 04:10:05;;;;;;;25.00;14.40;;;;;;;2.25;79.92;99460.81;107155;1260;114083;-69
2024/01/19 04:12:33;;;;;;;23.00;13.30;;;;;;;2.22;79.84;99464.05;107154;1257;107342;-69
2024/01/19 04:15:05;;;;;;;24.00;14.30;;;;;;;2.18;79.81;99462.05;107283;1259;107653;-68
2024/01/19 04:17:33;;;;;;;23.30;14.10;;;;;;;2.12;79.66;99468.84;107293;1256;99285;-69
2024/01/19 04:20:04;;;;;;;27.10;15.20;;;;;;;2.07;79.78;99477.04;107308;1257;99215;-69
2024/01/19 04:22:33;;;;;;;21.00;13.70;;;;;;;2.02;79.76;99479.63;107287;1257;113250;-69
2024/01/19 04:25:02;;;;;;;29.40;13.90;;;;;;;1.98;79.67;99489.85;107294;1257;107884;-69
2024/01/19 04:27:30;;;;;;;22.60;14.40;;;;;;;1.92;79.71;99493.48;107268;1257;108272;-69
2024/01/19 04:29:59;;;;;;;27.90;13.70;;;;;;;1.88;79.87;99493.24;107312;1257;99176;-69
2024/01/19 04:32:27;;;;;;;27.80;14.30;;;;;;;1.84;79.42;99498.34;107276;1257;99349;-70
2024/01/19 04:34:56;;;;;;;28.70;14.00;;;;;;;1.81;79.59;99502.22;107288;1259;113554;-70
2024/01/19 04:37:24;;;;;;;24.60;14.60;;;;;;;1.80;79.78;99511.36;107243;1257;107588;-69
2024/01/19 04:39:52;;;;;;;28.70;15.80;;;;;;;1.79;79.96;99514.23;107273;1257;108322;-69
2024/01/19 04:42:21;;;;;;;26.30;16.30;;;;;;;1.78;79.92;99521.36;107225;1256;99189;-69
2024/01/19 04:44:50;;;;;;;30.60;15.60;;;;;;;1.79;80.18;99527.50;107126;1260;99259;-68
2024/01/19 04:47:19;;;;;;;27.10;14.30;;;;;;;1.81;80.52;99534.59;107194;1257;112253;-68
2024/01/19 04:49:48;;;;;;;24.90;14.10;;;;;;;1.82;80.65;99539.30;107294;1257;108327;-68
2024/01/19 04:52:16;;;;;;;25.40;14.60;;;;;;;1.84;80.90;99544.27;107308;1256;107542;-68
2024/01/19 04:54:44;;;;;;;28.40;15.30;;;;;;;1.87;80.78;99546.86;107330;1257;99265;-68
2024/01/19 04:57:13;;;;;;;24.50;13.30;;;;;;;1.92;81.19;99554.14;107320;1257;99752;-70
2024/01/19 04:59:41;;;;;;;29.10;14.40;;;;;;;1.97;81.32;99561.38;107345;1255;112204;-68
2024/01/19 05:02:09;;;;;;;27.40;14.30;;;;;;;2.03;81.60;99565.38;107327;1257;107537;-68
2024/01/19 05:04:41;;;;;;;25.40;13.50;;;;;;;2.09;81.64;99570.43;107304;1256;107143;-69
2024/01/19 05:07:09;;;;;;;26.70;13.00;;;;;;;2.10;81.56;99576.75;107294;1257;99237;-69
2024/01/19 05:09:37;;;;;;;20.80;12.90;;;;;;;2.11;81.70;99585.48;107296;1257;99097;-69
2024/01/19 05:12:06;;;;;;;28.00;13.80;;;;;;;2.14;81.82;99591.77;107145;1257;112894;-69
2024/01/19 05:14:34;;;;;;;21.80;13.00;;;;;;;2.18;81.70;99598.09;107313;1257;108244;-69
2024/01/19 05:17:03;;;;;;;24.00;13.50;;;;;;;2.20;81.58;99605.70;107297;1257;108567;-69
2024/01/19 05:19:31;;;;;;;20.20;12.60;;;;;;;2.24;81.58;99605.47;107336;1257;99182;-69
2024/01/19 05:22:00;;;;;;;26.50;13.60;;;;;;;2.24;81.81;99613.41;107281;1258;99149;-68
2024/01/19 05:24:29;;;;;;;25.90;13.60;;;;;;;2.25;81.70;99622.88;107315;1256;113357;-68
2024/01/19 05:26:57;;;;;;;23.60;13.00;;;;;;;2.25;81.66;99625.67;107152;1257;107282;-68
2024/01/19 05:29:26;;;;;;;29.00;13.70;;;;;;;2.27;81.69;99625.70;107287;1257;107591;-69
2024/01/19 05:31:54;;;;;;;22.80;12.10;;;;;;;2.31;81.92;99630.73;107290;1257;99205;-69
2024/01/19 05:34:22;;;;;;;20.70;12.80;;;;;;;2.36;81.68;99640.67;107167;1257;99241;-68
2024/01/19 05:36:51;;;;;;;30.10;16.50;;;;;;;2.35;81.55;99645.66;107285;1257;113303;-68
2024/01/19 05:39:19;;;;;;;25.10;14.20;;;;;;;2.36;81.80;99654.27;107302;1256;107452;-69
2024/01/19 05:41:48;;;;;;;24.40;13.60;;;;;;;2.39;81.68;99669.31;107237;1259;108309;-69
2024/01/19 05:44:16;;;;;;;28.20;15.10;;;;;;;2.42;81.76;99678.40;107160;1256;99126;-69
2024/01/19 05:46:45;;;;;;;22.70;14.70;;;;;;;2.45;81.64;99680.89;107129;1256;99110;-69
2024/01/19 05:49:13;;;;;;;25.70;15.50;;;;;;;2.48;81.75;99686.33;107265;1257;112947;-69
2024/01/19 05:51:44;;;;;;;21.70;13.60;;;;;;;2.51;81.67;99693.19;107299;1257;108534;-70
2024/01/19 05:54:13;;;;;;;30.80;16.30;;;;;;;2.54;81.78;99703.79;107266;1256;107536;-69
2024/01/19 05:56:41;;;;;;;25.00;14.60;;;;;;;2.57;81.79;99747.44;107260;1256;99170;-68
2024/01/19 05:59:09;;;;;;;24.60;14.20;;;;;;;2.56;81.61;99771.44;107130;1256;99692;-69
2024/01/19 06:01:38;;;;;;;23.60;14.50;;;;;;;2.58;81.86;99791.48;107308;1257;112693;-69
2024/01/19 06:04:06;;;;;;;36.10;19.20;;;;;;;2.50;81.62;99802.44;107274;1257;107948;-69
2024/01/19 06:06:35;;;;;;;44.20;22.10;;;;;;;2.46;82.81;99818.11;107251;1257;108307;-70
2024/01/19 06:09:03;;;;;;;34.90;19.50;;;;;;;2.48;85.79;99826.31;107119;1260;99230;-68
2024/01/19 06:11:32;;;;;;;33.10;20.00;;;;;;;2.58;88.58;99835.02;107310;1256;99275;-69
2024/01/19 06:14:00;;;;;;;32.70;17.80;;;;;;;2.70;88.25;99837.52;107244;1256;114158;-70
2024/01/19 06:16:29;;;;;;;33.00;18.50;;;;;;;2.80;89.03;99850.09;107309;1257;107375;-70
2024/01/19 06:18:58;;;;;;;35.60;19.00;;;;;;;2.88;90.03;99849.35;107299;1257;107697;-69
2024/01/19 06:21:27;;;;;;;31.20;17.70;;;;;;;2.99;89.89;99855.33;107248;1257;99156;-69
2024/01/19 06:23:55;;;;;;;30.70;16.90;;;;;;;3.11;90.35;99865.43;107369;1256;99074;-69
2024/01/19 06:26:24;;;;;;;27.70;15.60;;;;;;;3.26;91.67;99878.40;107315;1257;112804;-69
2024/01/19 06:28:52;;;;;;;34.90;18.10;;;;;;;3.44;92.97;99874.80;107297;1257;106952;-69
2024/01/19 06:31:21;;;;;;;31.60;16.60;;;;;;;3.57;92.46;99872.05;107293;1256;108707;-69
2024/01/19 06:33:49;;;;;;;37.10;19.20;;;;;;;3.65;91.40;99886.96;107284;1259;99198;-68
2024/01/19 06:36:18;;;;;;;36.70;17.60;;;;;;;3.67;90.83;99891.67;107302;1257;99839;-69
2024/01/19 06:38:46;;;;;;;26.20;13.80;;;;;;;3.68;90.52;99899.27;107235;1257;112461;-67
2024/01/19 06:41:16;;;;;;;21.40;14.30;;;;;;;3.67;89.92;99904.29;107112;1256;109128;-67
2024/01/19 06:43:45;;;;;;;17.80;11.30;;;;;;;3.65;89.36;99905.15;107213;1255;108401;-68
2024/01/19 06:46:14;;;;;;;13.40;8.70;;;;;;;3.63;89.14;99917.56;107273;1257;99301;-69
2024/01/19 06:48:42;;;;;;;11.60;7.30;;;;;;;3.60;88.80;99924.34;107264;1257;99746;-69
2024/01/19 06:51:19;;;;;;;13.20;7.20;;;;;;;3.58;88.47;99931.06;107335;1256;113025;-67
2024/01/19 06:53:48;;;;;;;10.20;5.60;;;;;;;3.54;88.27;99939.10;107346;1258;106964;-70
2024/01/19 06:56:16;;;;;;;11.10;5.80;;;;;;;3.52;88.01;99939.09;107284;1256;108458;-67
2024/01/19 06:58:45;;;;;;;6.00;3.40;;;;;;;3.50;87.48;99946.71;107307;1257;99300;-67
2024/01/19 07:01:13;;;;;;;5.30;3.60;;;;;;;3.48;87.26;99952.02;107298;1259;99116;-67
2024/01/19 07:03:41;;;;;;;6.50;2.90;;;;;;;3.46;87.09;99958.70;107273;1257;113687;-69
2024/01/19 07:06:11;;;;;;;4.10;2.90;;;;;;;3.43;86.64;99964.89;107169;1256;108438;-69
2024/01/19 07:08:40;;;;;;;5.30;2.90;;;;;;;3.38;86.49;99975.20;107140;1257;107063;-69
2024/01/19 07:11:08;;;;;;;4.00;2.90;;;;;;;3.33;86.42;99988.12;107098;1256;99302;-69
2024/01/19 07:13:36;;;;;;;5.80;4.20;;;;;;;3.30;86.46;100000.91;107141;1256;99939;-69
2024/01/19 07:16:07;;;;;;;8.20;3.60;;;;;;;3.27;86.45;100008.42;107132;1256;113498;-67
2024/01/19 07:18:36;;;;;;;4.10;3.10;;;;;;;3.24;86.61;100011.58;107185;1257;108157;-65
2024/01/19 07:21:05;;;;;;;5.00;2.80;;;;;;;3.21;86.14;100012.74;107122;1256;107942;-66
2024/01/19 07:23:35;;;;;;;2.70;2.30;;;;;;;3.20;86.23;100016.70;107092;1256;99197;-70
2024/01/19 07:26:03;;;;;;;4.10;2.50;;;;;;;3.18;86.00;100029.92;107141;1256;99779;-71
2024/01/19 07:28:32;;;;;;;5.20;3.00;;;;;;;3.16;85.83;100045.15;107192;1255;112928;-71
2024/01/19 07:31:00;;;;;;;3.50;2.70;;;;;;;3.13;85.71;100055.61;107263;1256;107622;-68
2024/01/19 07:33:28;;;;;;;4.40;2.80;;;;;;;3.07;85.74;100071.23;107195;1256;108188;-70
2024/01/19 07:36:00;;;;;;;8.10;2.70;;;;;;;3.05;85.66;100088.95;107178;1256;99281;-72
2024/01/19 07:38:29;;;;;;;6.20;2.60;;;;;;;3.01;85.45;100092.89;107256;1256;99175;-69
2024/01/19 07:40:58;;;;;;;4.70;2.30;;;;;;;2.99;85.39;100101.39;107308;1257;112340;-71
2024/01/19 07:43:27;;;;;;;3.10;2.60;;;;;;;2.99;85.43;100109.70;107145;1257;108925;-65
2024/01/19 07:45:55;;;;;;;4.00;2.50;;;;;;;3.00;85.24;100106.60;107313;1257;108295;-68
2024/01/19 07:48:24;;;;;;;3.50;2.50;;;;;;;3.01;84.88;100111.33;107290;1259;99859;-68
2024/01/19 07:50:54;;;;;;;8.50;3.90;;;;;;;3.02;84.90;100123.45;107312;1257;99284;-69
2024/01/19 07:53:23;;;;;;;7.00;3.40;;;;;;;3.05;84.71;100132.71;107197;1256;113401;-71
2024/01/19 07:55:52;;;;;;;6.50;2.60;;;;;;;3.11;84.88;100149.84;107201;1257;108461;-69
2024/01/19 07:58:21;;;;;;;5.50;2.40;;;;;;;3.13;84.46;100161.41;107137;1256;107562;-71
2024/01/19 08:00:49;;;;;;;4.70;2.60;;;;;;;3.07;84.00;100165.29;107140;1256;99314;-69
2024/01/19 08:03:19;;;;;;;4.40;2.70;;;;;;;3.04;83.74;100175.64;107139;1256;99160;-69
2024/01/19 08:05:48;;;;;;;3.90;2.40;;;;;;;3.05;83.65;100184.63;107176;1260;113539;-68
2024/01/19 08:08:17;;;;;;;3.80;2.60;;;;;;;3.02;83.53;100195.92;107144;1256;107659;-69
2024/01/19 08:10:45;;;;;;;4.10;2.30;;;;;;;3.01;83.50;100208.79;107075;1257;108130;-68
2024/01/19 08:13:14;;;;;;;4.20;2.80;;;;;;;2.98;83.16;100221.88;107053;1256;99366;-70
2024/01/19 08:15:42;;;;;;;4.00;2.40;;;;;;;2.94;83.04;100234.91;107316;1257;99723;-70
2024/01/19 08:18:10;;;;;;;4.90;2.90;;;;;;;2.90;82.71;100238.34;107253;1255;112283;-69
2024/01/19 08:20:39;;;;;;;7.90;3.80;;;;;;;2.87;82.63;100251.14;107152;1256;108498;-69
2024/01/19 08:23:07;;;;;;;6.60;4.30;;;;;;;2.86;82.97;100257.60;107165;1256;106359;-68
2024/01/19 08:25:35;;;;;;;5.80;3.40;;;;;;;2.84;82.65;100265.84;107195;1260;99191;-67
2024/01/19 08:28:04;;;;;;;8.20;3.60;;;;;;;2.79;82.58;100270.24;107218;1256;99276;-69
2024/01/19 08:30:32;;;;;;;9.80;3.30;;;;;;;2.75;82.56;100279.54;107198;1257;113168;-66
2024/01/19 08:33:01;;;;;;;4.80;3.10;;;;;;;2.72;82.61;100281.48;107122;1260;107825;-67
2024/01/19 08:35:30;;;;;;;5.70;2.60;;;;;;;2.71;82.73;100278.00;107319;1256;108559;-68
2024/01/19 08:37:59;;;;;;;5.70;2.80;;;;;;;2.69;82.49;100287.17;107276;1255;99229;-68
2024/01/19 08:40:27;;;;;;;5.80;3.00;;;;;;;2.66;82.43;100290.53;107196;1257;99182;-65
2024/01/19 08:42:55;;;;;;;3.60;2.70;;;;;;;2.64;82.51;100297.92;107311;1259;113494;-67
2024/01/19 08:45:23;;;;;;;4.10;2.50;;;;;;;2.59;82.41;100302.11;106361;1256;1092874;-69
2024/01/19 08:47:56;;;;;;;5.10;3.00;;;;;;;2.56;82.47;100304.65;107097;1256;108103;-67
2024/01/19 08:50:27;;;;;;;5.70;3.20;;;;;;;2.53;82.48;100302.85;107127;1256;99208;-69
2024/01/19 08:52:56;;;;;;;4.30;3.30;;;;;;;2.52;82.43;100306.32;107181;1256;99804;-69
2024/01/19 08:55:25;;;;;;;5.30;3.90;;;;;;;2.52;82.31;100302.05;107199;1256;113077;-69
2024/01/19 08:57:54;;;;;;;6.50;3.00;;;;;;;2.52;82.42;100305.39;107187;1256;108355;-67
2024/01/19 09:00:22;;;;;;;3.80;2.80;;;;;;;2.52;82.18;100308.61;107136;1256;107281;-67
2024/01/19 09:02:51;;;;;;;5.00;3.10;;;;;;;2.51;82.05;100302.80;107138;1257;99233;-69
2024/01/19 09:05:31;;;;;;;6.10;4.30;;;;;;;2.47;81.93;100303.02;107181;1256;99184;-67
2024/01/19 09:08:00;;;;;;;6.50;3.20;;;;;;;2.44;82.11;100303.40;107184;1256;112800;-68
2024/01/19 09:10:32;;;;;;;3.50;2.30;;;;;;;2.47;82.13;100303.89;107282;1256;108320;-67
2024/01/19 09:13:00;;;;;;;8.00;3.90;;;;;;;2.48;81.79;100307.04;107326;1254;107747;-67
2024/01/19 09:15:28;;;;;;;7.40;3.40;;;;;;;2.47;81.75;100315.61;107241;1256;99186;-65
2024/01/19 09:17:57;;;;;;;3.10;2.60;;;;;;;2.42;81.78;100317.33;107176;1256;100001;-67
2024/01/19 09:20:26;;;;;;;5.20;2.90;;;;;;;2.40;81.76;100322.25;107307;1256;111860;-65
2024/01/19 09:22:54;;;;;;;3.70;2.50;;;;;;;2.39;81.67;100325.64;107316;1257;107699;-67
2024/01/19 09:25:23;;;;;;;8.00;3.50;;;;;;;2.35;81.64;100332.81;107305;1259;107771;-67
2024/01/19 09:27:51;;;;;;;5.10;3.60;;;;;;;2.33;81.64;100335.55;107267;1256;99201;-63
2024/01/19 09:30:21;;;;;;;4.20;2.80;;;;;;;2.34;81.54;100340.66;107305;1254;99752;-64
2024/01/19 09:32:49;;;;;;;5.20;3.40;;;;;;;2.32;81.51;100342.52;107333;1254;113322;-63
2024/01/19 09:35:18;;;;;;;8.50;4.20;;;;;;;2.31;81.46;100347.89;107293;1257;107999;-64
2024/01/19 09:37:46;;;;;;;9.90;4.80;;;;;;;2.33;81.64;100352.54;107335;1255;108296;-64
2024/01/19 09:40:16;;;;;;;5.60;3.00;;;;;;;2.35;81.39;100355.98;107219;1256;99205;-63
2024/01/19 09:42:48;;;;;;;5.40;3.50;;;;;;;2.37;81.24;100356.61;107245;1257;99217;-64
2024/01/19 09:45:19;;;;;;;5.90;3.40;;;;;;;2.40;81.31;100359.77;107249;1256;112823;-65
2024/01/19 09:48:10;;;;;;;5.20;3.50;;;;;;;2.40;81.03;100357.45;107193;1256;107916;-65
2024/01/19 09:50:41;;;;;;;5.70;3.50;;;;;;;2.43;80.90;100359.40;107169;1256;107838;-65
2024/01/19 09:53:27;;;;;;;7.00;4.30;;;;;;;2.42;80.67;100362.15;107194;1256;99223;-65
2024/01/19 09:55:55;;;;;;;7.40;4.10;;;;;;;2.39;80.83;100369.23;107221;1256;99797;-65
2024/01/19 09:58:26;;;;;;;7.60;4.50;;;;;;;2.37;80.68;100374.63;107216;1256;112289;-65
2024/01/19 10:00:55;;;;;;;7.90;4.80;;;;;;;2.38;80.87;100370.55;107203;1256;107140;-65
2024/01/19 10:03:28;;;;;;;7.90;4.70;;;;;;;2.39;80.88;100375.04;107301;1257;108642;-64
2024/01/19 10:05:56;;;;;;;13.30;6.50;;;;;;;2.40;80.49;100367.57;107088;1256;99183;-65
2024/01/19 10:08:25;;;;;;;7.80;4.80;;;;;;;2.44;80.66;100370.15;107181;1256;100374;-64
2024/01/19 10:10:56;;;;;;;4.70;3.40;;;;;;;2.48;80.43;100366.90;107324;1257;112048;-65
2024/01/19 10:13:24;;;;;;;6.20;3.50;;;;;;;2.52;80.39;100365.40;107301;1257;107114;-65
2024/01/19 10:15:53;;;;;;;6.10;3.40;;;;;;;2.55;80.12;100363.12;107252;1259;108588;-66
2024/01/19 10:18:21;;;;;;;5.50;3.90;;;;;;;2.59;80.15;100362.33;107279;1258;99048;-64
2024/01/19 10:20:51;;;;;;;6.00;3.80;;;;;;;2.63;79.96;100368.77;107332;1257;99734;-66
2024/01/19 10:23:22;;;;;;;6.40;4.00;;;;;;;2.65;79.70;100369.40;107341;1259;112090;-64
2024/01/19 10:25:51;;;;;;;6.70;4.50;;;;;;;2.65;79.53;100374.86;107335;1256;107517;-66
2024/01/19 10:28:35;;;;;;;5.70;3.90;;;;;;;2.65;79.46;100387.45;107322;1256;108632;-65
2024/01/19 10:31:17;;;;;;;7.10;4.00;;;;;;;2.61;79.35;100401.30;107296;1256;99188;-66
2024/01/19 10:33:56;;;;;;;7.00;4.80;;;;;;;2.55;79.25;100412.54;107312;1257;99208;-65
2024/01/19 10:36:26;;;;;;;8.10;4.70;;;;;;;2.49;79.29;100417.44;107195;1256;111881;-65
2024/01/19 10:39:16;;;;;;;10.00;5.10;;;;;;;2.49;79.67;100427.55;107288;1257;107935;-65
2024/01/19 10:41:46;;;;;;;7.10;4.30;;;;;;;2.46;79.40;100434.98;107292;1257;107734;-66
2024/01/19 10:44:16;;;;;;;14.10;5.50;;;;;;;2.48;79.77;100437.15;107264;1257;99208;-65
2024/01/19 10:46:46;;;;;;;7.20;4.60;;;;;;;2.51;79.81;100431.84;107303;1257;99101;-66
2024/01/19 10:49:17;;;;;;;8.00;4.90;;;;;;;2.55;79.59;100426.15;107319;1259;113474;-64
2024/01/19 10:51:47;;;;;;;5.80;3.90;;;;;;;2.54;79.44;100421.05;107351;1257;108410;-66
2024/01/19 10:54:24;;;;;;;6.90;4.60;;;;;;;2.53;79.42;100425.02;107238;1255;109277;-66
2024/01/19 10:57:09;;;;;;;9.60;5.50;;;;;;;2.50;79.34;100427.67;107280;1259;99258;-65
2024/01/19 10:59:37;;;;;;;10.50;5.50;;;;;;;2.44;79.26;100433.48;107234;1256;100219;-65
2024/01/19 11:02:06;;;;;;;9.10;5.40;;;;;;;2.46;79.55;100439.04;107074;1256;112058;-65
2024/01/19 11:04:35;;;;;;;8.60;5.60;;;;;;;2.45;79.41;100437.67;107205;1257;109009;-65
2024/01/19 11:07:07;;;;;;;8.70;5.20;;;;;;;2.41;79.29;100426.98;107069;1257;107669;-65
2024/01/19 11:09:36;;;;;;;6.40;4.70;;;;;;;2.43;79.50;100410.00;107275;1256;99281;-65
2024/01/19 11:12:08;;;;;;;7.80;4.70;;;;;;;2.48;79.41;100404.04;107284;1256;99701;-65
2024/01/19 11:14:41;;;;;;;12.20;5.90;;;;;;;2.51;79.30;100407.81;107280;1255;113572;-65
2024/01/19 11:17:10;;;;;;;13.70;6.50;;;;;;;2.53;79.41;100409.27;107296;1257;107733;-65
2024/01/19 11:19:39;;;;;;;10.90;5.60;;;;;;;2.56;79.20;100403.55;107240;1256;108273;-65
2024/01/19 11:22:08;;;;;;;9.20;5.50;;;;;;;2.58;79.32;100402.02;107161;1256;99197;-64
2024/01/19 11:24:38;;;;;;;11.10;5.20;;;;;;;2.61;79.08;100398.31;107257;1261;99275;-64